sensor_id;sensor_type;location;lat;lon;timestamp;P1;durP1;ratioP1;P2;durP2;ratioP2
22024;SDS011;11176;51.448;6.650;2022-10-22T00:01:26;7.25;;;3.80;;
22024;SDS011;11176;51.448;6.650;2022-10-22T00:03:53;9.48;;;4.15;;
22024;SDS011;11176;51.448;6.650;2022-10-22T00:06:20;8.30;;;3.67;;
22024;SDS011;11176;51.448;6.650;2022-10-22T00:08:46;7.35;;;3.70;;
22024;SDS011;11176;51.448;6.650;2022-10-22T00:11:13;6.70;;;3.80;;
22024;SDS011;11176;51.448;6.650;2022-10-22T00:13:43;11.50;;;4.40;;
22024;SDS011;11176;51.448;6.650;2022-10-22T00:16:15;7.93;;;4.10;;
22024;SDS011;11176;51.448;6.650;2022-10-22T00:18:41;10.30;;;3.95;;
22024;SDS011;11176;51.448;6.650;2022-10-22T00:21:08;13.85;;;4.05;;
22024;SDS011;11176;51.448;6.650;2022-10-22T00:23:34;9.95;;;4.35;;
22024;SDS011;11176;51.448;6.650;2022-10-22T00:26:00;8.10;;;3.95;;
22024;SDS011;11176;51.448;6.650;2022-10-22T00:28:27;9.75;;;4.60;;
22024;SDS011;11176;51.448;6.650;2022-10-22T00:30:54;9.70;;;4.53;;
22024;SDS011;11176;51.448;6.650;2022-10-22T00:33:25;6.50;;;4.22;;
22024;SDS011;11176;51.448;6.650;2022-10-22T00:35:53;8.60;;;4.00;;
22024;SDS011;11176;51.448;6.650;2022-10-22T00:38:20;12.77;;;4.80;;
22024;SDS011;11176;51.448;6.650;2022-10-22T00:40:46;8.38;;;4.00;;
22024;SDS011;11176;51.448;6.650;2022-10-22T00:43:15;8.45;;;4.07;;
22024;SDS011;11176;51.448;6.650;2022-10-22T00:45:43;9.65;;;3.78;;
22024;SDS011;11176;51.448;6.650;2022-10-22T00:48:29;8.52;;;4.38;;
22024;SDS011;11176;51.448;6.650;2022-10-22T00:50:58;8.27;;;4.05;;
22024;SDS011;11176;51.448;6.650;2022-10-22T00:53:38;8.73;;;4.43;;
22024;SDS011;11176;51.448;6.650;2022-10-22T00:56:09;7.00;;;3.40;;
22024;SDS011;11176;51.448;6.650;2022-10-22T00:58:36;6.32;;;3.75;;
22024;SDS011;11176;51.448;6.650;2022-10-22T01:01:07;7.63;;;3.65;;
22024;SDS011;11176;51.448;6.650;2022-10-22T01:03:38;9.25;;;3.80;;
22024;SDS011;11176;51.448;6.650;2022-10-22T01:06:05;8.80;;;4.20;;
22024;SDS011;11176;51.448;6.650;2022-10-22T01:09:19;9.07;;;4.22;;
22024;SDS011;11176;51.448;6.650;2022-10-22T01:11:46;9.13;;;4.05;;
22024;SDS011;11176;51.448;6.650;2022-10-22T01:14:31;5.30;;;3.70;;
22024;SDS011;11176;51.448;6.650;2022-10-22T01:17:12;9.15;;;3.88;;
22024;SDS011;11176;51.448;6.650;2022-10-22T01:22:52;5.43;;;3.60;;
22024;SDS011;11176;51.448;6.650;2022-10-22T01:25:53;10.63;;;4.80;;
22024;SDS011;11176;51.448;6.650;2022-10-22T01:31:28;11.40;;;4.10;;
22024;SDS011;11176;51.448;6.650;2022-10-22T01:34:01;13.63;;;4.82;;
22024;SDS011;11176;51.448;6.650;2022-10-22T01:36:29;6.82;;;3.95;;
22024;SDS011;11176;51.448;6.650;2022-10-22T01:38:58;6.32;;;3.78;;
22024;SDS011;11176;51.448;6.650;2022-10-22T01:41:27;5.25;;;3.58;;
22024;SDS011;11176;51.448;6.650;2022-10-22T01:43:54;7.82;;;4.47;;
22024;SDS011;11176;51.448;6.650;2022-10-22T01:46:24;6.72;;;4.38;;
22024;SDS011;11176;51.448;6.650;2022-10-22T01:54:20;6.30;;;3.90;;
22024;SDS011;11176;51.448;6.650;2022-10-22T02:05:23;6.70;;;4.10;;
22024;SDS011;11176;51.448;6.650;2022-10-22T02:08:00;11.23;;;4.30;;
22024;SDS011;11176;51.448;6.650;2022-10-22T02:10:30;7.60;;;4.57;;
22024;SDS011;11176;51.448;6.650;2022-10-22T02:12:57;11.15;;;4.38;;
22024;SDS011;11176;51.448;6.650;2022-10-22T02:15:26;10.00;;;4.70;;
22024;SDS011;11176;51.448;6.650;2022-10-22T02:17:55;9.93;;;4.07;;
22024;SDS011;11176;51.448;6.650;2022-10-22T02:20:26;5.85;;;3.70;;
22024;SDS011;11176;51.448;6.650;2022-10-22T02:22:55;8.88;;;3.70;;
22024;SDS011;11176;51.448;6.650;2022-10-22T02:25:22;10.48;;;4.43;;
22024;SDS011;11176;51.448;6.650;2022-10-22T02:30:22;9.50;;;4.85;;
22024;SDS011;11176;51.448;6.650;2022-10-22T02:35:33;11.45;;;4.40;;
22024;SDS011;11176;51.448;6.650;2022-10-22T02:38:01;8.95;;;4.43;;
22024;SDS011;11176;51.448;6.650;2022-10-22T02:40:29;10.00;;;4.60;;
22024;SDS011;11176;51.448;6.650;2022-10-22T02:42:56;8.48;;;4.47;;
22024;SDS011;11176;51.448;6.650;2022-10-22T02:45:23;8.65;;;4.65;;
22024;SDS011;11176;51.448;6.650;2022-10-22T02:47:50;12.77;;;5.25;;
22024;SDS011;11176;51.448;6.650;2022-10-22T02:50:17;7.85;;;4.40;;
22024;SDS011;11176;51.448;6.650;2022-10-22T02:52:43;11.50;;;4.25;;
22024;SDS011;11176;51.448;6.650;2022-10-22T02:55:09;11.07;;;4.63;;
22024;SDS011;11176;51.448;6.650;2022-10-22T02:57:36;10.43;;;4.22;;
22024;SDS011;11176;51.448;6.650;2022-10-22T03:00:04;9.65;;;5.05;;
22024;SDS011;11176;51.448;6.650;2022-10-22T03:02:31;11.25;;;4.80;;
22024;SDS011;11176;51.448;6.650;2022-10-22T03:04:57;9.05;;;4.43;;
22024;SDS011;11176;51.448;6.650;2022-10-22T03:07:24;7.80;;;4.70;;
22024;SDS011;11176;51.448;6.650;2022-10-22T03:09:51;7.22;;;4.00;;
22024;SDS011;11176;51.448;6.650;2022-10-22T03:12:17;8.93;;;4.30;;
22024;SDS011;11176;51.448;6.650;2022-10-22T03:14:43;8.52;;;3.97;;
22024;SDS011;11176;51.448;6.650;2022-10-22T03:17:10;7.22;;;4.25;;
22024;SDS011;11176;51.448;6.650;2022-10-22T03:19:36;10.18;;;5.25;;
22024;SDS011;11176;51.448;6.650;2022-10-22T03:22:04;10.40;;;4.57;;
22024;SDS011;11176;51.448;6.650;2022-10-22T03:24:35;10.00;;;4.97;;
22024;SDS011;11176;51.448;6.650;2022-10-22T03:27:05;11.60;;;4.53;;
22024;SDS011;11176;51.448;6.650;2022-10-22T03:29:32;9.35;;;5.07;;
22024;SDS011;11176;51.448;6.650;2022-10-22T03:32:01;9.57;;;4.50;;
22024;SDS011;11176;51.448;6.650;2022-10-22T03:34:28;8.00;;;4.18;;
22024;SDS011;11176;51.448;6.650;2022-10-22T03:36:55;7.38;;;4.43;;
22024;SDS011;11176;51.448;6.650;2022-10-22T03:39:24;8.75;;;4.32;;
22024;SDS011;11176;51.448;6.650;2022-10-22T03:41:52;7.30;;;4.50;;
22024;SDS011;11176;51.448;6.650;2022-10-22T03:44:19;10.60;;;5.15;;
22024;SDS011;11176;51.448;6.650;2022-10-22T03:46:47;9.77;;;4.80;;
22024;SDS011;11176;51.448;6.650;2022-10-22T03:49:13;11.80;;;5.38;;
22024;SDS011;11176;51.448;6.650;2022-10-22T03:51:40;10.68;;;5.35;;
22024;SDS011;11176;51.448;6.650;2022-10-22T03:54:06;10.70;;;5.00;;
22024;SDS011;11176;51.448;6.650;2022-10-22T03:56:32;11.88;;;5.47;;
22024;SDS011;11176;51.448;6.650;2022-10-22T03:58:59;7.85;;;4.90;;
22024;SDS011;11176;51.448;6.650;2022-10-22T04:01:27;10.77;;;5.60;;
22024;SDS011;11176;51.448;6.650;2022-10-22T04:03:55;12.75;;;4.65;;
22024;SDS011;11176;51.448;6.650;2022-10-22T04:06:23;9.40;;;5.07;;
22024;SDS011;11176;51.448;6.650;2022-10-22T04:08:50;9.68;;;6.32;;
22024;SDS011;11176;51.448;6.650;2022-10-22T04:11:16;9.50;;;5.28;;
22024;SDS011;11176;51.448;6.650;2022-10-22T04:13:43;14.15;;;5.97;;
22024;SDS011;11176;51.448;6.650;2022-10-22T04:16:11;8.52;;;5.47;;
22024;SDS011;11176;51.448;6.650;2022-10-22T04:18:39;10.02;;;5.40;;
22024;SDS011;11176;51.448;6.650;2022-10-22T04:21:07;9.95;;;5.07;;
22024;SDS011;11176;51.448;6.650;2022-10-22T04:23:35;10.35;;;4.75;;
22024;SDS011;11176;51.448;6.650;2022-10-22T04:26:03;11.27;;;5.47;;
22024;SDS011;11176;51.448;6.650;2022-10-22T04:28:32;10.25;;;5.13;;
22024;SDS011;11176;51.448;6.650;2022-10-22T04:30:59;10.00;;;5.18;;
22024;SDS011;11176;51.448;6.650;2022-10-22T04:33:26;12.60;;;6.15;;
22024;SDS011;11176;51.448;6.650;2022-10-22T04:35:52;10.00;;;5.60;;
22024;SDS011;11176;51.448;6.650;2022-10-22T04:38:19;11.23;;;5.65;;
22024;SDS011;11176;51.448;6.650;2022-10-22T04:40:45;12.77;;;6.32;;
22024;SDS011;11176;51.448;6.650;2022-10-22T04:43:11;12.60;;;6.07;;
22024;SDS011;11176;51.448;6.650;2022-10-22T04:45:38;9.40;;;6.15;;
22024;SDS011;11176;51.448;6.650;2022-10-22T04:48:04;10.73;;;6.85;;
22024;SDS011;11176;51.448;6.650;2022-10-22T04:50:31;16.52;;;6.70;;
22024;SDS011;11176;51.448;6.650;2022-10-22T04:52:57;11.70;;;6.55;;
22024;SDS011;11176;51.448;6.650;2022-10-22T04:55:24;13.15;;;7.45;;
22024;SDS011;11176;51.448;6.650;2022-10-22T04:57:50;12.35;;;6.85;;
22024;SDS011;11176;51.448;6.650;2022-10-22T05:00:17;13.50;;;6.82;;
22024;SDS011;11176;51.448;6.650;2022-10-22T05:02:47;14.43;;;7.40;;
22024;SDS011;11176;51.448;6.650;2022-10-22T05:05:14;12.57;;;7.07;;
22024;SDS011;11176;51.448;6.650;2022-10-22T05:07:40;12.50;;;7.18;;
22024;SDS011;11176;51.448;6.650;2022-10-22T05:10:07;10.82;;;6.70;;
22024;SDS011;11176;51.448;6.650;2022-10-22T05:12:34;11.30;;;7.10;;
22024;SDS011;11176;51.448;6.650;2022-10-22T05:15:01;14.90;;;9.15;;
22024;SDS011;11176;51.448;6.650;2022-10-22T05:17:27;10.57;;;7.40;;
22024;SDS011;11176;51.448;6.650;2022-10-22T05:19:53;11.60;;;7.55;;
22024;SDS011;11176;51.448;6.650;2022-10-22T05:22:20;12.20;;;7.28;;
22024;SDS011;11176;51.448;6.650;2022-10-22T05:24:46;12.13;;;7.07;;
22024;SDS011;11176;51.448;6.650;2022-10-22T05:27:14;11.10;;;6.72;;
22024;SDS011;11176;51.448;6.650;2022-10-22T05:29:40;11.63;;;7.28;;
22024;SDS011;11176;51.448;6.650;2022-10-22T05:32:07;12.00;;;7.70;;
22024;SDS011;11176;51.448;6.650;2022-10-22T05:34:33;12.10;;;6.82;;
22024;SDS011;11176;51.448;6.650;2022-10-22T05:37:01;14.27;;;7.28;;
22024;SDS011;11176;51.448;6.650;2022-10-22T05:39:27;16.95;;;7.38;;
22024;SDS011;11176;51.448;6.650;2022-10-22T05:41:54;10.88;;;6.75;;
22024;SDS011;11176;51.448;6.650;2022-10-22T05:44:20;11.90;;;6.70;;
22024;SDS011;11176;51.448;6.650;2022-10-22T05:46:47;8.80;;;6.07;;
22024;SDS011;11176;51.448;6.650;2022-10-22T05:49:13;8.93;;;6.15;;
22024;SDS011;11176;51.448;6.650;2022-10-22T05:51:41;11.43;;;6.32;;
22024;SDS011;11176;51.448;6.650;2022-10-22T05:54:07;9.45;;;5.53;;
22024;SDS011;11176;51.448;6.650;2022-10-22T05:56:38;14.27;;;5.85;;
22024;SDS011;11176;51.448;6.650;2022-10-22T05:59:04;14.57;;;6.20;;
22024;SDS011;11176;51.448;6.650;2022-10-22T06:01:31;12.05;;;5.60;;
22024;SDS011;11176;51.448;6.650;2022-10-22T06:04:01;10.73;;;5.93;;
22024;SDS011;11176;51.448;6.650;2022-10-22T06:11:31;9.13;;;4.93;;
22024;SDS011;11176;51.448;6.650;2022-10-22T06:14:00;11.00;;;5.55;;
22024;SDS011;11176;51.448;6.650;2022-10-22T06:16:28;15.18;;;6.15;;
22024;SDS011;11176;51.448;6.650;2022-10-22T06:18:55;8.05;;;4.57;;
22024;SDS011;11176;51.448;6.650;2022-10-22T06:21:24;10.48;;;4.78;;
22024;SDS011;11176;51.448;6.650;2022-10-22T06:23:50;11.73;;;4.30;;
22024;SDS011;11176;51.448;6.650;2022-10-22T06:26:17;9.30;;;4.63;;
22024;SDS011;11176;51.448;6.650;2022-10-22T06:28:43;8.85;;;4.22;;
22024;SDS011;11176;51.448;6.650;2022-10-22T06:31:09;10.13;;;4.40;;
22024;SDS011;11176;51.448;6.650;2022-10-22T06:33:36;8.73;;;4.18;;
22024;SDS011;11176;51.448;6.650;2022-10-22T06:36:11;9.43;;;4.25;;
22024;SDS011;11176;51.448;6.650;2022-10-22T06:38:39;7.97;;;3.83;;
22024;SDS011;11176;51.448;6.650;2022-10-22T06:41:10;9.35;;;4.32;;
22024;SDS011;11176;51.448;6.650;2022-10-22T06:43:38;8.90;;;4.40;;
22024;SDS011;11176;51.448;6.650;2022-10-22T06:46:06;10.85;;;4.22;;
22024;SDS011;11176;51.448;6.650;2022-10-22T06:48:35;12.32;;;4.50;;
22024;SDS011;11176;51.448;6.650;2022-10-22T06:51:03;14.27;;;4.55;;
22024;SDS011;11176;51.448;6.650;2022-10-22T06:53:32;7.82;;;4.10;;
22024;SDS011;11176;51.448;6.650;2022-10-22T06:56:03;7.50;;;4.45;;
22024;SDS011;11176;51.448;6.650;2022-10-22T06:58:31;8.40;;;3.80;;
22024;SDS011;11176;51.448;6.650;2022-10-22T07:01:05;14.77;;;4.20;;
22024;SDS011;11176;51.448;6.650;2022-10-22T07:03:32;7.25;;;3.63;;
22024;SDS011;11176;51.448;6.650;2022-10-22T07:05:59;8.27;;;3.80;;
22024;SDS011;11176;51.448;6.650;2022-10-22T07:08:27;8.85;;;3.78;;
22024;SDS011;11176;51.448;6.650;2022-10-22T07:10:54;10.32;;;4.00;;
22024;SDS011;11176;51.448;6.650;2022-10-22T07:13:21;11.10;;;3.97;;
22024;SDS011;11176;51.448;6.650;2022-10-22T07:15:51;6.60;;;3.15;;
22024;SDS011;11176;51.448;6.650;2022-10-22T07:18:20;9.25;;;3.58;;
22024;SDS011;11176;51.448;6.650;2022-10-22T07:20:47;10.82;;;3.70;;
22024;SDS011;11176;51.448;6.650;2022-10-22T07:23:15;10.80;;;3.90;;
22024;SDS011;11176;51.448;6.650;2022-10-22T07:25:42;11.23;;;3.40;;
22024;SDS011;11176;51.448;6.650;2022-10-22T07:28:08;10.68;;;3.78;;
22024;SDS011;11176;51.448;6.650;2022-10-22T07:30:36;7.35;;;2.63;;
22024;SDS011;11176;51.448;6.650;2022-10-22T07:33:04;6.38;;;2.80;;
22024;SDS011;11176;51.448;6.650;2022-10-22T07:35:31;7.13;;;2.97;;
22024;SDS011;11176;51.448;6.650;2022-10-22T07:37:59;8.55;;;2.97;;
22024;SDS011;11176;51.448;6.650;2022-10-22T07:40:26;9.88;;;2.72;;
22024;SDS011;11176;51.448;6.650;2022-10-22T07:42:52;10.00;;;2.80;;
22024;SDS011;11176;51.448;6.650;2022-10-22T07:45:19;6.78;;;2.50;;
22024;SDS011;11176;51.448;6.650;2022-10-22T07:47:46;7.72;;;2.42;;
22024;SDS011;11176;51.448;6.650;2022-10-22T07:50:13;8.43;;;2.55;;
22024;SDS011;11176;51.448;6.650;2022-10-22T07:52:40;7.28;;;2.50;;
22024;SDS011;11176;51.448;6.650;2022-10-22T07:55:07;9.27;;;2.20;;
22024;SDS011;11176;51.448;6.650;2022-10-22T07:57:34;10.15;;;2.53;;
22024;SDS011;11176;51.448;6.650;2022-10-22T08:00:06;8.35;;;2.33;;
22024;SDS011;11176;51.448;6.650;2022-10-22T08:02:42;7.68;;;2.10;;
22024;SDS011;11176;51.448;6.650;2022-10-22T08:05:09;7.90;;;2.00;;
22024;SDS011;11176;51.448;6.650;2022-10-22T08:07:35;10.15;;;2.42;;
22024;SDS011;11176;51.448;6.650;2022-10-22T08:10:02;11.18;;;2.33;;
22024;SDS011;11176;51.448;6.650;2022-10-22T08:12:29;5.07;;;1.90;;
22024;SDS011;11176;51.448;6.650;2022-10-22T08:14:55;8.20;;;2.15;;
22024;SDS011;11176;51.448;6.650;2022-10-22T08:17:22;7.30;;;2.08;;
22024;SDS011;11176;51.448;6.650;2022-10-22T08:19:48;8.80;;;2.08;;
22024;SDS011;11176;51.448;6.650;2022-10-22T08:22:15;9.40;;;2.13;;
22024;SDS011;11176;51.448;6.650;2022-10-22T08:24:41;6.43;;;1.90;;
22024;SDS011;11176;51.448;6.650;2022-10-22T08:27:07;11.90;;;2.60;;
22024;SDS011;11176;51.448;6.650;2022-10-22T08:29:34;7.47;;;1.95;;
22024;SDS011;11176;51.448;6.650;2022-10-22T08:32:00;8.15;;;2.03;;
22024;SDS011;11176;51.448;6.650;2022-10-22T08:34:29;9.20;;;2.10;;
22024;SDS011;11176;51.448;6.650;2022-10-22T08:36:56;7.28;;;1.80;;
22024;SDS011;11176;51.448;6.650;2022-10-22T08:39:22;6.53;;;2.25;;
22024;SDS011;11176;51.448;6.650;2022-10-22T08:44:32;9.50;;;2.60;;
22024;SDS011;11176;51.448;6.650;2022-10-22T08:49:56;10.90;;;2.35;;
22024;SDS011;11176;51.448;6.650;2022-10-22T08:52:25;8.48;;;1.90;;
22024;SDS011;11176;51.448;6.650;2022-10-22T08:54:53;9.88;;;2.38;;
22024;SDS011;11176;51.448;6.650;2022-10-22T09:02:57;8.43;;;1.90;;
22024;SDS011;11176;51.448;6.650;2022-10-22T09:08:33;12.18;;;2.47;;
22024;SDS011;11176;51.448;6.650;2022-10-22T09:13:36;10.75;;;1.95;;
22024;SDS011;11176;51.448;6.650;2022-10-22T09:16:37;6.95;;;1.80;;
22024;SDS011;11176;51.448;6.650;2022-10-22T09:27:11;9.45;;;1.65;;
22024;SDS011;11176;51.448;6.650;2022-10-22T09:29:41;5.70;;;1.73;;
22024;SDS011;11176;51.448;6.650;2022-10-22T09:32:08;8.23;;;2.40;;
22024;SDS011;11176;51.448;6.650;2022-10-22T09:34:35;7.90;;;2.05;;
22024;SDS011;11176;51.448;6.650;2022-10-22T09:37:06;11.45;;;2.08;;
22024;SDS011;11176;51.448;6.650;2022-10-22T09:42:03;7.13;;;1.80;;
22024;SDS011;11176;51.448;6.650;2022-10-22T09:44:35;10.50;;;2.20;;
22024;SDS011;11176;51.448;6.650;2022-10-22T09:47:03;10.65;;;2.00;;
22024;SDS011;11176;51.448;6.650;2022-10-22T09:49:32;5.60;;;1.23;;
22024;SDS011;11176;51.448;6.650;2022-10-22T09:52:01;8.43;;;1.75;;
22024;SDS011;11176;51.448;6.650;2022-10-22T09:57:05;7.40;;;1.67;;
22024;SDS011;11176;51.448;6.650;2022-10-22T09:59:42;8.05;;;1.75;;
22024;SDS011;11176;51.448;6.650;2022-10-22T10:04:53;6.07;;;1.45;;
22024;SDS011;11176;51.448;6.650;2022-10-22T10:07:25;7.38;;;1.85;;
22024;SDS011;11176;51.448;6.650;2022-10-22T10:09:55;10.00;;;2.03;;
22024;SDS011;11176;51.448;6.650;2022-10-22T10:15:34;6.18;;;2.13;;
22024;SDS011;11176;51.448;6.650;2022-10-22T10:21:08;7.20;;;1.90;;
22024;SDS011;11176;51.448;6.650;2022-10-22T10:26:48;8.75;;;1.55;;
22024;SDS011;11176;51.448;6.650;2022-10-22T10:29:41;5.75;;;1.85;;
22024;SDS011;11176;51.448;6.650;2022-10-22T10:35:13;5.18;;;1.33;;
22024;SDS011;11176;51.448;6.650;2022-10-22T10:38:25;9.68;;;1.75;;
22024;SDS011;11176;51.448;6.650;2022-10-22T10:41:18;8.50;;;2.03;;
22024;SDS011;11176;51.448;6.650;2022-10-22T10:47:14;4.45;;;1.65;;
22024;SDS011;11176;51.448;6.650;2022-10-22T10:50:16;5.28;;;1.58;;
22024;SDS011;11176;51.448;6.650;2022-10-22T10:53:35;11.70;;;1.65;;
22024;SDS011;11176;51.448;6.650;2022-10-22T10:58:33;4.45;;;1.25;;
22024;SDS011;11176;51.448;6.650;2022-10-22T11:01:14;5.40;;;1.48;;
22024;SDS011;11176;51.448;6.650;2022-10-22T11:06:46;6.60;;;1.40;;
22024;SDS011;11176;51.448;6.650;2022-10-22T11:09:26;5.45;;;1.77;;
22024;SDS011;11176;51.448;6.650;2022-10-22T11:11:57;6.45;;;1.52;;
22024;SDS011;11176;51.448;6.650;2022-10-22T11:14:37;3.63;;;1.10;;
22024;SDS011;11176;51.448;6.650;2022-10-22T11:17:13;7.32;;;1.55;;
22024;SDS011;11176;51.448;6.650;2022-10-22T11:20:04;10.45;;;1.70;;
22024;SDS011;11176;51.448;6.650;2022-10-22T11:22:37;7.80;;;1.58;;
22024;SDS011;11176;51.448;6.650;2022-10-22T11:25:29;5.35;;;1.20;;
22024;SDS011;11176;51.448;6.650;2022-10-22T11:28:04;6.68;;;1.55;;
22024;SDS011;11176;51.448;6.650;2022-10-22T11:30:37;7.35;;;1.45;;
22024;SDS011;11176;51.448;6.650;2022-10-22T11:33:13;8.15;;;1.45;;
22024;SDS011;11176;51.448;6.650;2022-10-22T11:35:44;4.55;;;1.40;;
22024;SDS011;11176;51.448;6.650;2022-10-22T11:38:16;5.57;;;1.23;;
22024;SDS011;11176;51.448;6.650;2022-10-22T11:40:59;4.03;;;1.00;;
22024;SDS011;11176;51.448;6.650;2022-10-22T11:43:32;7.78;;;1.52;;
22024;SDS011;11176;51.448;6.650;2022-10-22T11:48:42;8.20;;;1.17;;
22024;SDS011;11176;51.448;6.650;2022-10-22T11:53:57;6.63;;;1.30;;
22024;SDS011;11176;51.448;6.650;2022-10-22T11:56:35;8.57;;;1.20;;
22024;SDS011;11176;51.448;6.650;2022-10-22T11:59:04;4.35;;;1.10;;
22024;SDS011;11176;51.448;6.650;2022-10-22T12:01:54;8.40;;;1.52;;
22024;SDS011;11176;51.448;6.650;2022-10-22T12:04:21;4.07;;;1.20;;
22024;SDS011;11176;51.448;6.650;2022-10-22T12:07:23;4.47;;;1.23;;
22024;SDS011;11176;51.448;6.650;2022-10-22T12:09:56;4.80;;;1.20;;
22024;SDS011;11176;51.448;6.650;2022-10-22T12:12:23;6.38;;;1.35;;
22024;SDS011;11176;51.448;6.650;2022-10-22T12:14:51;6.50;;;1.30;;
22024;SDS011;11176;51.448;6.650;2022-10-22T12:17:24;6.22;;;1.23;;
22024;SDS011;11176;51.448;6.650;2022-10-22T12:19:58;6.10;;;1.10;;
22024;SDS011;11176;51.448;6.650;2022-10-22T12:22:29;6.43;;;1.27;;
22024;SDS011;11176;51.448;6.650;2022-10-22T12:25:00;5.13;;;1.30;;
22024;SDS011;11176;51.448;6.650;2022-10-22T12:27:33;4.38;;;1.08;;
22024;SDS011;11176;51.448;6.650;2022-10-22T12:30:04;4.65;;;1.30;;
22024;SDS011;11176;51.448;6.650;2022-10-22T12:32:43;8.00;;;1.20;;
22024;SDS011;11176;51.448;6.650;2022-10-22T12:35:16;4.35;;;1.17;;
22024;SDS011;11176;51.448;6.650;2022-10-22T12:37:44;2.25;;;0.80;;
22024;SDS011;11176;51.448;6.650;2022-10-22T12:40:18;5.15;;;1.35;;
22024;SDS011;11176;51.448;6.650;2022-10-22T12:42:48;5.70;;;1.20;;
22024;SDS011;11176;51.448;6.650;2022-10-22T12:45:16;4.45;;;1.15;;
22024;SDS011;11176;51.448;6.650;2022-10-22T12:47:47;4.78;;;1.15;;
22024;SDS011;11176;51.448;6.650;2022-10-22T12:50:19;4.80;;;1.30;;
22024;SDS011;11176;51.448;6.650;2022-10-22T12:52:50;4.88;;;1.23;;
22024;SDS011;11176;51.448;6.650;2022-10-22T12:55:21;6.20;;;1.27;;
22024;SDS011;11176;51.448;6.650;2022-10-22T12:57:51;6.72;;;1.10;;
22024;SDS011;11176;51.448;6.650;2022-10-22T13:00:19;4.13;;;1.10;;
22024;SDS011;11176;51.448;6.650;2022-10-22T13:02:50;4.35;;;0.95;;
22024;SDS011;11176;51.448;6.650;2022-10-22T13:08:03;4.80;;;1.23;;
22024;SDS011;11176;51.448;6.650;2022-10-22T13:10:35;6.22;;;1.30;;
22024;SDS011;11176;51.448;6.650;2022-10-22T13:13:03;5.60;;;1.65;;
22024;SDS011;11176;51.448;6.650;2022-10-22T13:15:34;4.05;;;1.10;;
22024;SDS011;11176;51.448;6.650;2022-10-22T13:18:03;7.68;;;1.30;;
22024;SDS011;11176;51.448;6.650;2022-10-22T13:20:30;5.85;;;1.10;;
22024;SDS011;11176;51.448;6.650;2022-10-22T13:22:58;4.10;;;0.95;;
22024;SDS011;11176;51.448;6.650;2022-10-22T13:25:27;5.93;;;1.30;;
22024;SDS011;11176;51.448;6.650;2022-10-22T13:27:58;4.78;;;1.33;;
22024;SDS011;11176;51.448;6.650;2022-10-22T13:30:50;9.70;;;1.60;;
22024;SDS011;11176;51.448;6.650;2022-10-22T13:33:23;5.43;;;1.17;;
22024;SDS011;11176;51.448;6.650;2022-10-22T13:35:54;5.00;;;1.13;;
22024;SDS011;11176;51.448;6.650;2022-10-22T13:38:23;3.45;;;1.00;;
22024;SDS011;11176;51.448;6.650;2022-10-22T13:40:50;2.85;;;0.75;;
22024;SDS011;11176;51.448;6.650;2022-10-22T13:43:17;5.88;;;1.13;;
22024;SDS011;11176;51.448;6.650;2022-10-22T13:45:44;4.05;;;1.17;;
22024;SDS011;11176;51.448;6.650;2022-10-22T13:48:12;6.40;;;1.17;;
22024;SDS011;11176;51.448;6.650;2022-10-22T13:50:41;4.28;;;0.95;;
22024;SDS011;11176;51.448;6.650;2022-10-22T13:53:08;6.63;;;1.05;;
22024;SDS011;11176;51.448;6.650;2022-10-22T13:55:44;4.32;;;1.20;;
22024;SDS011;11176;51.448;6.650;2022-10-22T13:58:15;5.38;;;1.33;;
22024;SDS011;11176;51.448;6.650;2022-10-22T14:00:50;4.35;;;1.17;;
22024;SDS011;11176;51.448;6.650;2022-10-22T14:03:20;4.03;;;1.33;;
22024;SDS011;11176;51.448;6.650;2022-10-22T14:05:49;5.35;;;1.00;;
22024;SDS011;11176;51.448;6.650;2022-10-22T14:08:17;7.70;;;1.42;;
22024;SDS011;11176;51.448;6.650;2022-10-22T14:10:45;5.55;;;1.50;;
22024;SDS011;11176;51.448;6.650;2022-10-22T14:13:13;8.65;;;1.77;;
22024;SDS011;11176;51.448;6.650;2022-10-22T14:15:42;4.47;;;1.13;;
22024;SDS011;11176;51.448;6.650;2022-10-22T14:18:11;4.95;;;1.42;;
22024;SDS011;11176;51.448;6.650;2022-10-22T14:20:49;4.60;;;1.55;;
22024;SDS011;11176;51.448;6.650;2022-10-22T14:23:22;5.90;;;1.40;;
22024;SDS011;11176;51.448;6.650;2022-10-22T14:25:51;7.15;;;1.42;;
22024;SDS011;11176;51.448;6.650;2022-10-22T14:28:18;6.63;;;1.45;;
22024;SDS011;11176;51.448;6.650;2022-10-22T14:30:45;8.07;;;1.55;;
22024;SDS011;11176;51.448;6.650;2022-10-22T14:33:16;5.38;;;1.60;;
22024;SDS011;11176;51.448;6.650;2022-10-22T14:35:56;4.88;;;1.35;;
22024;SDS011;11176;51.448;6.650;2022-10-22T14:38:23;4.88;;;1.10;;
22024;SDS011;11176;51.448;6.650;2022-10-22T14:40:49;4.22;;;1.05;;
22024;SDS011;11176;51.448;6.650;2022-10-22T14:43:20;3.58;;;1.20;;
22024;SDS011;11176;51.448;6.650;2022-10-22T14:45:48;4.82;;;1.10;;
22024;SDS011;11176;51.448;6.650;2022-10-22T14:48:15;2.80;;;1.08;;
22024;SDS011;11176;51.448;6.650;2022-10-22T14:50:42;4.75;;;1.15;;
22024;SDS011;11176;51.448;6.650;2022-10-22T14:53:10;5.43;;;1.00;;
22024;SDS011;11176;51.448;6.650;2022-10-22T14:55:38;2.95;;;0.85;;
22024;SDS011;11176;51.448;6.650;2022-10-22T14:58:09;7.00;;;1.23;;
22024;SDS011;11176;51.448;6.650;2022-10-22T15:00:39;6.68;;;1.17;;
22024;SDS011;11176;51.448;6.650;2022-10-22T15:03:06;4.25;;;1.13;;
22024;SDS011;11176;51.448;6.650;2022-10-22T15:05:33;3.63;;;0.90;;
22024;SDS011;11176;51.448;6.650;2022-10-22T15:08:01;5.22;;;1.00;;
22024;SDS011;11176;51.448;6.650;2022-10-22T15:10:27;9.27;;;1.52;;
22024;SDS011;11176;51.448;6.650;2022-10-22T15:12:54;9.93;;;1.50;;
22024;SDS011;11176;51.448;6.650;2022-10-22T15:15:20;3.92;;;1.20;;
22024;SDS011;11176;51.448;6.650;2022-10-22T15:17:48;3.80;;;1.05;;
22024;SDS011;11176;51.448;6.650;2022-10-22T15:20:15;4.18;;;1.00;;
22024;SDS011;11176;51.448;6.650;2022-10-22T15:22:41;3.67;;;1.13;;
22024;SDS011;11176;51.448;6.650;2022-10-22T15:25:08;4.63;;;1.10;;
22024;SDS011;11176;51.448;6.650;2022-10-22T15:27:35;3.50;;;1.10;;
22024;SDS011;11176;51.448;6.650;2022-10-22T15:30:01;5.03;;;1.00;;
22024;SDS011;11176;51.448;6.650;2022-10-22T15:32:33;3.97;;;0.95;;
22024;SDS011;11176;51.448;6.650;2022-10-22T15:35:00;5.05;;;1.30;;
22024;SDS011;11176;51.448;6.650;2022-10-22T15:37:26;6.13;;;1.20;;
22024;SDS011;11176;51.448;6.650;2022-10-22T15:39:53;4.32;;;1.20;;
22024;SDS011;11176;51.448;6.650;2022-10-22T15:42:19;4.95;;;1.30;;
22024;SDS011;11176;51.448;6.650;2022-10-22T15:44:46;4.60;;;1.20;;
22024;SDS011;11176;51.448;6.650;2022-10-22T15:47:12;3.47;;;1.15;;
22024;SDS011;11176;51.448;6.650;2022-10-22T15:49:39;5.30;;;1.30;;
22024;SDS011;11176;51.448;6.650;2022-10-22T15:52:07;2.15;;;0.88;;
22024;SDS011;11176;51.448;6.650;2022-10-22T15:54:34;6.03;;;1.27;;
22024;SDS011;11176;51.448;6.650;2022-10-22T15:57:01;3.30;;;1.02;;
22024;SDS011;11176;51.448;6.650;2022-10-22T15:59:30;2.67;;;1.00;;
22024;SDS011;11176;51.448;6.650;2022-10-22T16:01:57;3.50;;;1.20;;
22024;SDS011;11176;51.448;6.650;2022-10-22T16:04:23;3.97;;;1.33;;
22024;SDS011;11176;51.448;6.650;2022-10-22T16:06:50;3.58;;;1.13;;
22024;SDS011;11176;51.448;6.650;2022-10-22T16:09:19;5.97;;;1.30;;
22024;SDS011;11176;51.448;6.650;2022-10-22T16:11:48;4.95;;;1.10;;
22024;SDS011;11176;51.448;6.650;2022-10-22T16:14:16;4.38;;;1.20;;
22024;SDS011;11176;51.448;6.650;2022-10-22T16:16:46;5.28;;;1.38;;
22024;SDS011;11176;51.448;6.650;2022-10-22T16:19:15;4.97;;;1.33;;
22024;SDS011;11176;51.448;6.650;2022-10-22T16:21:43;4.43;;;1.30;;
22024;SDS011;11176;51.448;6.650;2022-10-22T16:24:10;4.40;;;1.25;;
22024;SDS011;11176;51.448;6.650;2022-10-22T16:26:37;3.38;;;0.90;;
22024;SDS011;11176;51.448;6.650;2022-10-22T16:29:04;4.85;;;1.00;;
22024;SDS011;11176;51.448;6.650;2022-10-22T16:31:32;2.65;;;1.17;;